Lassellsville, New York
Current Conditions -  °F | °C
As of 12:15 PM on Sunday 23 Nov 2014 (Local Time) from KNY0 Reporting Station
Overcast Overcast  
Wind Chill: 46°   Ceiling: 5500
Heat Index: 46°   Visibility: 10mi
Dew Point: 40°   Wind: 3mph
Humidity: 77%   Direction: 240°WSW
Pressure: 30.08"   Gusts: NA
Location:  43.035°N, 74.6217°W
Report Text: KNY0 231715Z AUTO 24003KT 10SM OVC055 08/04 A3008 RMK AO2 T00800042
Loading
Personal Weather Stations






























Interactive Weather Map New forecast layout! Learn more

10-Day Weather Forecast

Advertisements
Track Severe Weather on mobile